Time;durP1;ratioP1;P1;durP2;ratioP2;P2;SDS_P1;SDS_P2;PMS_P1;PMS_P2;Temp;Humidity;BMP_temperature;BMP_pressure;BME280_temperature;BME280_humidity;BME280_pressure;Samples;Min_cycle;Max_cycle;Signal;HPM_P1;HPM_P2
2022/10/19 00:01:09;;;;;;;13.88;8.90;;;;;;;15.22;90.80;97200.78;5054149;28;20049;-74
2022/10/19 00:03:36;;;;;;;15.00;10.70;;;;;;;15.11;91.27;97197.59;5055123;28;20049;-74
2022/10/19 00:06:12;;;;;;;12.82;10.05;;;;;;;15.09;91.82;97200.66;5054621;28;20041;-74
2022/10/19 00:08:39;;;;;;;12.50;8.80;;;;;;;15.15;91.62;97198.56;5036342;28;20053;-75
2022/10/19 00:11:07;;;;;;;12.65;8.95;;;;;;;15.20;91.88;97203.88;5052149;28;20154;-76
2022/10/19 00:13:34;;;;;;;9.35;8.00;;;;;;;15.23;92.07;97205.94;5042973;28;20053;-74
2022/10/19 00:16:01;;;;;;;12.80;8.50;;;;;;;15.24;92.16;97204.81;5052172;28;20044;-74
2022/10/19 00:18:27;;;;;;;10.88;8.43;;;;;;;15.21;91.73;97208.22;5052596;28;20048;-76
2022/10/19 00:21:02;;;;;;;9.55;8.05;;;;;;;15.20;91.66;97208.56;5053210;28;20132;-74
2022/10/19 00:23:29;;;;;;;12.38;7.53;;;;;;;15.21;91.64;97208.22;5054137;28;20041;-74
2022/10/19 00:25:56;;;;;;;9.07;7.45;;;;;;;15.20;91.71;97208.56;5053647;28;20052;-74
2022/10/19 00:28:24;;;;;;;14.63;8.68;;;;;;;15.19;91.82;97207.75;5053025;28;20057;-74
2022/10/19 00:30:51;;;;;;;11.15;7.97;;;;;;;15.20;92.02;97197.56;5035764;28;20051;-75
2022/10/19 00:33:20;;;;;;;13.60;8.65;;;;;;;15.21;92.06;97200.00;5053509;28;20051;-75
2022/10/19 00:35:48;;;;;;;12.75;9.75;;;;;;;15.24;92.02;97202.06;5054505;28;20124;-74
2022/10/19 00:38:15;;;;;;;13.55;9.88;;;;;;;15.19;92.34;97199.53;5053778;28;20049;-75
2022/10/19 00:40:42;;;;;;;10.45;8.82;;;;;;;15.18;92.65;97202.56;5054010;28;20055;-74
2022/10/19 00:43:14;;;;;;;14.63;11.23;;;;;;;15.11;93.03;97200.34;5052873;28;20056;-74
2022/10/19 00:45:42;;;;;;;15.60;10.05;;;;;;;15.12;93.17;97205.47;5053916;28;20053;-76
2022/10/19 00:48:10;;;;;;;13.10;8.85;;;;;;;15.16;93.27;97208.38;5054070;28;20051;-75
2022/10/19 00:50:37;;;;;;;14.13;9.77;;;;;;;15.19;93.16;97205.00;5055814;28;20044;-73
2022/10/19 00:53:04;;;;;;;13.45;9.98;;;;;;;15.23;93.14;97202.41;5036044;28;20042;-76
2022/10/19 00:55:31;;;;;;;13.82;10.27;;;;;;;15.22;93.03;97198.84;5049114;28;20049;-74
2022/10/19 00:57:58;;;;;;;12.73;9.68;;;;;;;15.24;93.21;97199.31;5056124;28;20056;-74
2022/10/19 01:00:24;;;;;;;15.52;11.93;;;;;;;15.18;93.48;97199.81;5055441;28;20047;-75
2022/10/19 01:02:53;;;;;;;13.48;10.00;;;;;;;15.21;93.46;97194.50;5056147;28;20057;-76
2022/10/19 01:05:20;;;;;;;11.93;9.18;;;;;;;15.20;93.57;97192.91;5053482;28;20156;-75
2022/10/19 01:07:46;;;;;;;12.10;9.52;;;;;;;15.23;93.52;97196.91;5051935;28;20045;-75
2022/10/19 01:10:13;;;;;;;12.68;9.88;;;;;;;15.27;93.57;97198.66;5052217;28;20414;-74
2022/10/19 01:12:56;;;;;;;17.38;11.18;;;;;;;15.30;93.20;97189.00;5052742;28;20049;-74
2022/10/19 01:15:32;;;;;;;14.90;9.75;;;;;;;15.31;93.05;97185.91;5048940;28;20049;-74
2022/10/19 01:18:09;;;;;;;13.13;9.30;;;;;;;15.32;93.06;97194.94;5052727;28;20056;-73
2022/10/19 01:21:15;;;;;;;13.25;9.38;;;;;;;15.34;92.90;97187.97;5052719;28;20045;-73
2022/10/19 01:24:24;;;;;;;11.73;9.05;;;;;;;15.35;92.95;97192.38;4953828;28;20049;-77
2022/10/19 01:27:25;;;;;;;13.52;9.68;;;;;;;15.33;92.91;97194.63;4938066;29;20051;-77
2022/10/19 01:30:07;;;;;;;11.82;9.75;;;;;;;15.32;92.89;97193.00;5054099;28;20049;-76
2022/10/19 01:32:57;;;;;;;12.77;9.13;;;;;;;15.33;92.99;97186.38;5051924;28;20507;-76
2022/10/19 01:35:31;;;;;;;13.80;10.38;;;;;;;15.33;92.79;97186.38;5050646;28;20415;-77
2022/10/19 01:38:08;;;;;;;13.90;9.07;;;;;;;15.32;92.50;97178.47;5050882;28;20045;-75
2022/10/19 01:40:43;;;;;;;13.25;9.38;;;;;;;15.33;92.51;97175.41;5051012;28;20056;-76
2022/10/19 01:43:18;;;;;;;15.07;10.40;;;;;;;15.28;92.69;97172.84;5051962;28;20583;-76
2022/10/19 01:45:50;;;;;;;12.20;8.73;;;;;;;15.28;92.95;97178.31;5054759;28;20522;-77
2022/10/19 01:48:22;;;;;;;11.20;8.37;;;;;;;15.28;92.92;97172.84;5054411;28;20048;-75
2022/10/19 01:50:54;;;;;;;14.57;10.25;;;;;;;15.29;92.90;97174.44;5055511;28;20055;-76
2022/10/19 01:53:21;;;;;;;15.57;10.20;;;;;;;15.28;92.39;97167.34;5055534;28;20049;-76
2022/10/19 01:55:52;;;;;;;11.95;9.38;;;;;;;15.27;92.11;97165.75;5055611;28;20276;-76
2022/10/19 01:58:23;;;;;;;14.10;10.57;;;;;;;15.27;91.96;97173.19;5055199;28;20049;-77
2022/10/19 02:00:53;;;;;;;11.57;9.80;;;;;;;15.25;92.01;97167.22;5055189;28;20045;-77
2022/10/19 02:03:22;;;;;;;13.50;9.68;;;;;;;15.25;92.31;97168.03;5054495;28;20406;-76
2022/10/19 02:05:51;;;;;;;15.27;10.48;;;;;;;15.25;92.34;97169.97;5054587;28;20049;-74
2022/10/19 02:08:24;;;;;;;12.45;10.43;;;;;;;15.21;92.10;97169.81;5053975;28;20419;-75
2022/10/19 02:10:51;;;;;;;16.08;10.02;;;;;;;15.19;92.29;97179.47;5036690;28;20045;-74
2022/10/19 02:13:20;;;;;;;11.32;9.65;;;;;;;15.18;92.52;97170.44;5053122;28;20052;-76
2022/10/19 02:15:52;;;;;;;16.27;9.95;;;;;;;15.19;92.57;97174.00;5053148;28;20083;-74
2022/10/19 02:18:25;;;;;;;13.05;10.15;;;;;;;15.16;92.31;97169.97;5053680;28;20053;-74
2022/10/19 02:20:51;;;;;;;13.27;9.80;;;;;;;15.17;92.80;97177.06;5054228;28;20047;-75
2022/10/19 02:23:22;;;;;;;12.70;9.55;;;;;;;15.17;92.74;97165.31;5053427;28;20287;-75
2022/10/19 02:25:48;;;;;;;13.27;10.98;;;;;;;15.16;92.66;97169.97;5053049;28;20072;-74
2022/10/19 02:28:15;;;;;;;13.77;10.57;;;;;;;15.15;92.84;97168.38;5053060;28;20053;-74
2022/10/19 02:30:42;;;;;;;18.77;11.07;;;;;;;15.13;92.99;97173.38;5053422;28;20059;-73
2022/10/19 02:33:11;;;;;;;11.48;9.10;;;;;;;15.16;93.22;97169.97;5053033;28;20053;-74
2022/10/19 02:35:38;;;;;;;16.10;10.95;;;;;;;15.14;93.00;97167.56;5054185;28;20124;-74
2022/10/19 02:38:07;;;;;;;12.75;9.77;;;;;;;15.13;93.10;97160.47;5054962;28;20491;-75
2022/10/19 02:40:38;;;;;;;11.63;9.43;;;;;;;15.15;93.23;97160.16;5055150;28;20049;-75
2022/10/19 02:43:10;;;;;;;17.13;12.30;;;;;;;15.16;93.24;97169.19;5052900;28;20045;-75
2022/10/19 02:45:40;;;;;;;16.17;11.70;;;;;;;15.15;93.33;97160.16;5055340;28;20415;-75
2022/10/19 02:48:12;;;;;;;18.05;13.15;;;;;;;15.13;93.22;97159.66;5055851;28;20049;-76
2022/10/19 02:50:43;;;;;;;16.40;13.23;;;;;;;15.11;93.27;97151.75;5056826;28;20049;-75
2022/10/19 02:53:10;;;;;;;15.23;12.45;;;;;;;15.12;93.15;97152.56;5056795;28;20048;-75
2022/10/19 02:55:36;;;;;;;16.85;12.52;;;;;;;15.09;93.04;97147.75;5055725;28;20055;-74
2022/10/19 02:58:03;;;;;;;22.90;14.13;;;;;;;15.08;92.93;97143.38;5055586;28;20049;-74
2022/10/19 03:00:29;;;;;;;21.17;14.35;;;;;;;15.03;93.02;97138.06;5053376;28;20045;-74
2022/10/19 03:02:56;;;;;;;17.50;12.93;;;;;;;15.00;93.25;97141.47;5053589;28;20503;-74
2022/10/19 03:05:24;;;;;;;19.23;13.27;;;;;;;14.96;93.43;97143.25;5053285;28;20522;-74
2022/10/19 03:07:51;;;;;;;15.18;13.07;;;;;;;14.98;93.56;97138.25;5053992;28;20045;-74
2022/10/19 03:10:17;;;;;;;15.75;11.82;;;;;;;14.98;93.59;97141.81;5053239;28;20045;-75
2022/10/19 03:12:44;;;;;;;19.80;12.93;;;;;;;15.00;93.83;97136.00;5054211;28;20051;-74
2022/10/19 03:15:15;;;;;;;15.60;11.48;;;;;;;15.03;94.09;97138.06;5052640;28;20037;-74
2022/10/19 03:17:41;;;;;;;16.50;13.05;;;;;;;15.04;93.64;97139.69;5034289;28;20053;-76
2022/10/19 03:20:09;;;;;;;17.95;12.25;;;;;;;15.02;93.80;97136.47;5033822;28;20045;-77
2022/10/19 03:22:37;;;;;;;20.15;13.70;;;;;;;15.02;93.67;97136.47;5036386;28;20060;-75
2022/10/19 03:25:04;;;;;;;19.92;13.48;;;;;;;15.03;93.56;97132.56;5053674;28;20045;-76
2022/10/19 03:27:31;;;;;;;17.98;13.02;;;;;;;14.98;93.44;97135.50;5054505;28;20506;-77
2022/10/19 03:29:57;;;;;;;16.95;12.60;;;;;;;14.97;93.13;97131.94;5055626;28;20052;-76
2022/10/19 03:32:24;;;;;;;19.15;13.93;;;;;;;14.95;92.89;97133.44;5057569;28;20124;-77
2022/10/19 03:34:50;;;;;;;19.17;14.13;;;;;;;14.91;92.75;97135.22;5058522;28;20049;-76
2022/10/19 03:37:17;;;;;;;19.30;13.52;;;;;;;14.81;93.24;97125.38;5057298;28;20053;-76
2022/10/19 03:39:45;;;;;;;17.27;12.50;;;;;;;14.77;93.36;97130.75;5055378;28;20128;-75
2022/10/19 03:42:11;;;;;;;15.68;12.38;;;;;;;14.80;93.55;97118.28;5053649;28;20041;-76
2022/10/19 03:44:38;;;;;;;15.55;12.52;;;;;;;14.80;94.11;97121.84;5035270;28;20056;-74
2022/10/19 03:47:04;;;;;;;18.38;12.10;;;;;;;14.85;94.24;97116.19;5054171;28;20083;-76
2022/10/19 03:49:31;;;;;;;19.67;13.27;;;;;;;14.83;94.00;97117.66;5054756;28;20037;-75
2022/10/19 03:51:57;;;;;;;18.00;12.70;;;;;;;14.82;94.09;97116.03;5055060;28;20103;-76
2022/10/19 03:54:24;;;;;;;17.00;13.23;;;;;;;14.79;94.18;97109.28;5053809;28;20041;-74
2022/10/19 03:56:52;;;;;;;19.30;13.73;;;;;;;14.76;93.39;97109.91;5053148;28;20521;-75
2022/10/19 03:59:18;;;;;;;16.48;11.63;;;;;;;14.74;93.57;97109.44;5053861;28;20518;-75
2022/10/19 04:01:46;;;;;;;15.48;12.55;;;;;;;14.70;93.63;97119.44;5055048;28;20045;-75
2022/10/19 04:04:14;;;;;;;14.07;10.45;;;;;;;14.70;94.01;97115.91;5053394;28;20615;-76
2022/10/19 04:06:42;;;;;;;20.08;13.82;;;;;;;14.65;94.20;97116.06;5053908;28;20051;-74
2022/10/19 04:09:12;;;;;;;14.98;11.25;;;;;;;14.66;94.22;97109.44;5053988;28;20045;-74
2022/10/19 04:11:39;;;;;;;16.67;11.55;;;;;;;14.64;94.32;97114.47;5054593;28;20075;-74
2022/10/19 04:14:08;;;;;;;15.32;10.90;;;;;;;14.65;94.16;97116.06;5053594;28;20049;-74
2022/10/19 04:16:34;;;;;;;15.77;11.45;;;;;;;14.66;93.67;97112.19;5058102;28;20579;-77
2022/10/19 04:19:01;;;;;;;17.08;11.90;;;;;;;14.64;93.28;97119.94;5058680;28;20044;-76
2022/10/19 04:21:29;;;;;;;16.45;11.70;;;;;;;14.61;93.04;97115.91;5058551;28;20037;-77
2022/10/19 04:23:59;;;;;;;15.15;11.85;;;;;;;14.54;92.68;97121.09;5057804;28;20041;-75
2022/10/19 04:26:26;;;;;;;17.35;12.18;;;;;;;14.51;93.38;97132.69;5053884;28;20056;-74
2022/10/19 04:28:52;;;;;;;16.48;11.63;;;;;;;14.48;93.62;97119.66;5053994;28;20063;-75
2022/10/19 04:31:20;;;;;;;16.80;11.15;;;;;;;14.47;93.73;97128.97;5034306;28;20045;-77
2022/10/19 04:33:47;;;;;;;22.15;14.88;;;;;;;14.44;94.06;97129.63;5040942;28;20045;-74
2022/10/19 04:36:16;;;;;;;20.23;15.00;;;;;;;14.43;94.74;97125.28;5054720;28;20045;-73
2022/10/19 04:38:42;;;;;;;23.60;16.17;;;;;;;14.46;95.34;97122.69;5054648;28;20064;-75
2022/10/19 04:41:12;;;;;;;24.70;16.45;;;;;;;14.51;95.78;97113.50;5054211;28;20048;-75
2022/10/19 04:43:39;;;;;;;21.85;15.27;;;;;;;14.53;96.00;97103.03;5055256;28;20486;-75
2022/10/19 04:46:08;;;;;;;22.75;16.17;;;;;;;14.54;96.24;97105.44;5053295;28;20043;-74
2022/10/19 04:48:38;;;;;;;25.75;17.25;;;;;;;14.59;96.24;97104.47;5054427;28;20068;-74
2022/10/19 04:51:05;;;;;;;22.23;16.98;;;;;;;14.62;96.24;97106.59;5054510;28;20041;-75
2022/10/19 04:53:33;;;;;;;24.90;16.13;;;;;;;14.67;96.15;97098.19;5053259;28;20057;-74
2022/10/19 04:56:00;;;;;;;22.30;16.48;;;;;;;14.68;95.71;97094.31;5053810;28;20037;-76
2022/10/19 04:58:27;;;;;;;26.00;16.98;;;;;;;14.70;95.67;97097.50;5053307;28;20493;-75
2022/10/19 05:00:54;;;;;;;26.13;17.45;;;;;;;14.67;95.59;97097.34;5035181;28;20561;-76
2022/10/19 05:03:20;;;;;;;24.80;17.35;;;;;;;14.64;95.68;97096.09;5054247;28;20055;-76
2022/10/19 05:05:48;;;;;;;22.05;16.30;;;;;;;14.63;95.81;97090.94;5054976;28;20041;-75
2022/10/19 05:08:15;;;;;;;19.35;14.77;;;;;;;14.68;96.01;97094.31;5056152;28;20128;-77
2022/10/19 05:10:42;;;;;;;19.38;15.38;;;;;;;14.67;96.02;97089.97;5057067;28;20063;-74
2022/10/19 05:13:08;;;;;;;26.02;16.83;;;;;;;14.68;96.10;97096.25;5054913;28;20131;-75
2022/10/19 05:15:35;;;;;;;17.85;13.32;;;;;;;14.69;96.19;97093.16;5053561;28;20044;-74
2022/10/19 05:18:01;;;;;;;21.48;15.63;;;;;;;14.73;96.10;97093.34;5055867;28;20496;-77
2022/10/19 05:20:28;;;;;;;22.98;16.20;;;;;;;14.77;96.18;97095.09;5058708;28;20051;-76
2022/10/19 05:22:56;;;;;;;25.30;17.20;;;;;;;14.75;95.28;97094.59;5059199;28;20128;-75
2022/10/19 05:25:22;;;;;;;23.02;16.52;;;;;;;14.74;95.39;97093.00;5058001;28;20429;-75
2022/10/19 05:27:53;;;;;;;23.60;16.33;;;;;;;14.77;95.45;97094.25;5059043;28;20518;-75
2022/10/19 05:30:20;;;;;;;27.88;17.92;;;;;;;14.75;95.46;97100.09;5055648;28;20115;-75
2022/10/19 05:32:47;;;;;;;28.85;18.50;;;;;;;14.73;95.67;97102.34;5056513;28;20434;-74
2022/10/19 05:35:14;;;;;;;31.05;19.17;;;;;;;14.65;95.65;97108.66;5053682;28;20072;-75
2022/10/19 05:37:40;;;;;;;32.08;18.92;;;;;;;14.63;95.46;97102.69;5055138;28;20037;-74
2022/10/19 05:40:10;;;;;;;29.17;17.98;;;;;;;14.66;95.31;97096.56;5053434;28;20077;-76
2022/10/19 05:42:36;;;;;;;33.42;18.35;;;;;;;14.66;95.30;97102.03;5054815;28;20044;-75
2022/10/19 05:45:04;;;;;;;31.42;18.80;;;;;;;14.63;95.37;97097.22;5054455;28;20045;-75
2022/10/19 05:47:30;;;;;;;35.72;19.85;;;;;;;14.58;95.33;97100.13;5055300;28;20492;-75
2022/10/19 05:49:57;;;;;;;32.67;19.30;;;;;;;14.56;96.15;97099.63;5054815;28;20411;-75
2022/10/19 05:52:23;;;;;;;37.75;20.20;;;;;;;14.53;95.99;97100.31;5054578;28;20047;-75
2022/10/19 05:54:50;;;;;;;34.25;19.73;;;;;;;14.52;96.30;97102.25;5055079;28;20053;-75
2022/10/19 05:57:18;;;;;;;35.15;19.17;;;;;;;14.56;96.39;97113.34;5054896;28;20052;-74
2022/10/19 05:59:44;;;;;;;45.20;22.30;;;;;;;14.52;96.62;97104.19;5053872;28;20045;-74
2022/10/19 06:02:13;;;;;;;35.60;20.23;;;;;;;14.54;96.95;97110.13;5053829;28;20045;-79
2022/10/19 06:04:40;;;;;;;36.88;21.27;;;;;;;14.59;96.69;97109.97;5055320;28;20048;-75
2022/10/19 06:07:06;;;;;;;40.83;21.83;;;;;;;14.52;96.53;97112.41;5053819;28;20140;-76
2022/10/19 06:09:35;;;;;;;35.05;20.77;;;;;;;14.50;96.73;97109.97;5054873;28;20056;-76
2022/10/19 06:12:02;;;;;;;37.60;21.20;;;;;;;14.50;97.05;97115.44;5054664;28;20048;-79
2022/10/19 06:14:30;;;;;;;38.97;20.85;;;;;;;14.51;97.09;97122.56;5054342;28;20045;-75
2022/10/19 06:16:57;;;;;;;37.90;21.65;;;;;;;14.57;97.27;97131.41;5054420;28;20049;-74
2022/10/19 06:19:23;;;;;;;38.70;21.40;;;;;;;14.59;97.15;97124.47;5054178;28;20041;-75
2022/10/19 06:21:50;;;;;;;38.63;20.45;;;;;;;14.58;96.67;97124.81;5054373;28;20045;-75
2022/10/19 06:24:16;;;;;;;35.85;20.20;;;;;;;14.51;96.76;97121.72;5053852;28;20408;-75
2022/10/19 06:26:43;;;;;;;33.67;19.48;;;;;;;14.49;97.04;97129.47;5053722;28;20049;-74
2022/10/19 06:29:10;;;;;;;34.35;19.48;;;;;;;14.50;97.20;97128.34;5052167;28;20045;-74
2022/10/19 06:31:37;;;;;;;31.27;18.88;;;;;;;14.50;97.25;97129.16;5054181;28;20049;-75
2022/10/19 06:34:04;;;;;;;32.22;18.77;;;;;;;14.45;97.25;97139.44;5053166;28;20045;-75
2022/10/19 06:36:32;;;;;;;31.60;19.02;;;;;;;14.38;97.63;97139.94;5053810;28;20400;-75
2022/10/19 06:39:00;;;;;;;41.65;19.85;;;;;;;14.20;97.66;97136.41;5053742;28;20051;-75
2022/10/19 06:41:27;;;;;;;31.95;16.63;;;;;;;14.20;98.38;97136.41;5053701;28;20045;-75
2022/10/19 06:43:55;;;;;;;29.92;15.98;;;;;;;14.22;98.11;97138.81;5036004;28;20106;-74
2022/10/19 06:46:23;;;;;;;37.90;18.70;;;;;;;14.19;98.49;97148.47;5035127;28;20056;-74
2022/10/19 06:48:53;;;;;;;33.83;15.82;;;;;;;14.20;98.31;97141.88;5054052;28;20046;-75
2022/10/19 06:51:20;;;;;;;34.70;17.83;;;;;;;14.20;98.03;97143.78;5053385;28;20049;-76
2022/10/19 06:53:47;;;;;;;34.75;17.08;;;;;;;14.22;98.25;97147.84;5053937;28;20135;-74
2022/10/19 06:56:14;;;;;;;39.70;18.85;;;;;;;14.21;98.33;97146.22;5052858;28;20048;-74
2022/10/19 06:58:40;;;;;;;36.28;18.15;;;;;;;14.23;98.58;97143.97;5035741;28;20056;-75
2022/10/19 07:01:09;;;;;;;37.05;17.35;;;;;;;14.22;98.71;97147.84;5053081;28;20139;-75
2022/10/19 07:03:36;;;;;;;31.02;16.55;;;;;;;14.24;98.47;97150.25;5053607;28;20048;-75
2022/10/19 07:06:06;;;;;;;36.38;18.65;;;;;;;14.22;98.53;97152.50;5053153;28;20059;-75
2022/10/19 07:08:33;;;;;;;33.15;17.27;;;;;;;14.24;98.80;97153.78;5053874;28;20080;-74
2022/10/19 07:11:02;;;;;;;37.72;19.60;;;;;;;14.14;99.12;97151.38;5053352;28;20508;-75
2022/10/19 07:13:29;;;;;;;36.60;19.40;;;;;;;14.23;99.08;97148.63;5052602;28;20491;-75
2022/10/19 07:15:57;;;;;;;41.60;21.25;;;;;;;14.20;99.14;97155.59;5052936;28;20048;-75
2022/10/19 07:18:24;;;;;;;39.78;21.33;;;;;;;14.28;98.92;97157.50;5052838;28;20040;-74
2022/10/19 07:20:54;;;;;;;37.25;20.02;;;;;;;14.32;98.27;97158.47;5053362;28;20052;-75
2022/10/19 07:23:24;;;;;;;36.85;21.02;;;;;;;14.38;97.92;97152.84;5052428;28;20159;-74
2022/10/19 07:25:52;;;;;;;37.65;19.85;;;;;;;14.33;98.36;97149.13;5052785;28;20051;-75
2022/10/19 07:28:19;;;;;;;40.50;20.45;;;;;;;14.37;98.36;97143.81;5035000;28;20064;-75
2022/10/19 07:30:46;;;;;;;36.90;19.83;;;;;;;14.44;98.36;97151.53;5030838;28;20046;-75
2022/10/19 07:33:12;;;;;;;42.03;21.77;;;;;;;14.50;97.90;97153.81;5031231;28;20049;-75
2022/10/19 07:35:39;;;;;;;41.85;21.30;;;;;;;14.51;97.97;97149.97;5031944;28;20045;-76
2022/10/19 07:38:06;;;;;;;45.13;21.75;;;;;;;14.45;98.10;97148.47;5032843;28;20046;-74
2022/10/19 07:40:34;;;;;;;41.45;21.13;;;;;;;14.44;98.36;97135.91;5033043;28;20080;-75
2022/10/19 07:43:01;;;;;;;39.22;21.33;;;;;;;14.46;98.16;97138.31;5032755;28;20052;-75
2022/10/19 07:45:28;;;;;;;46.75;22.85;;;;;;;14.47;97.99;97142.69;5032001;28;20396;-75
2022/10/19 07:47:55;;;;;;;42.33;21.52;;;;;;;14.47;97.83;97142.69;5032520;28;20044;-74
2022/10/19 07:50:23;;;;;;;42.53;21.25;;;;;;;14.59;97.87;97145.59;5031548;28;20049;-76
2022/10/19 07:52:51;;;;;;;41.50;22.42;;;;;;;14.55;97.77;97147.34;5032903;28;20128;-74
2022/10/19 07:55:18;;;;;;;38.15;20.55;;;;;;;14.67;97.73;97146.69;5033875;28;20048;-75
2022/10/19 07:57:48;;;;;;;36.03;20.95;;;;;;;14.70;96.98;97152.34;5035155;28;20065;-76
2022/10/19 08:00:15;;;;;;;31.60;19.27;;;;;;;14.73;96.94;97151.69;5035291;28;20524;-77
2022/10/19 08:02:41;;;;;;;34.03;20.30;;;;;;;14.74;97.35;97147.81;5035277;28;20056;-74
2022/10/19 08:05:08;;;;;;;48.92;22.08;;;;;;;14.79;97.25;97153.13;5035845;28;20415;-76
2022/10/19 08:07:35;;;;;;;36.35;20.73;;;;;;;14.77;96.98;97151.84;5035453;28;20135;-76
2022/10/19 08:10:01;;;;;;;44.10;23.13;;;;;;;14.66;96.15;97154.13;5033740;28;20045;-79
2022/10/19 08:12:28;;;;;;;41.47;22.17;;;;;;;14.75;96.27;97152.16;5034185;28;20046;-76
2022/10/19 08:14:56;;;;;;;45.53;24.15;;;;;;;14.73;95.48;97151.69;5034096;28;20052;-75
2022/10/19 08:17:22;;;;;;;45.92;25.52;;;;;;;14.66;95.82;97159.59;5032380;28;20041;-76
2022/10/19 08:19:49;;;;;;;44.03;23.40;;;;;;;14.73;95.92;97157.19;5034242;28;20049;-74
2022/10/19 08:22:15;;;;;;;44.00;24.08;;;;;;;14.81;95.36;97159.09;5033405;28;20049;-74
2022/10/19 08:24:42;;;;;;;40.72;22.40;;;;;;;14.89;95.08;97162.97;5033597;28;20049;-75
2022/10/19 08:27:08;;;;;;;40.53;22.88;;;;;;;15.01;94.79;97156.78;5033922;28;20042;-75
2022/10/19 08:29:35;;;;;;;45.92;25.00;;;;;;;14.95;94.57;97175.38;5033385;28;20048;-75
2022/10/19 08:32:03;;;;;;;48.80;25.83;;;;;;;15.00;94.30;97171.66;5051480;28;20131;-77
2022/10/19 08:34:29;;;;;;;44.65;25.38;;;;;;;14.99;94.14;97167.31;5052777;28;20056;-75
2022/10/19 08:36:56;;;;;;;49.45;25.83;;;;;;;15.00;93.99;97166.16;5052933;28;20048;-74
2022/10/19 08:39:23;;;;;;;46.13;25.15;;;;;;;15.03;94.10;97154.53;5051669;28;20088;-74
2022/10/19 08:41:58;;;;;;;48.67;25.85;;;;;;;15.16;94.15;97159.00;5052336;28;20051;-74
2022/10/19 08:44:58;;;;;;;51.65;25.08;;;;;;;15.23;93.82;97159.31;5051910;28;20045;-74
2022/10/19 08:47:42;;;;;;;49.80;25.83;;;;;;;15.28;93.57;97163.81;5051714;28;20492;-75
2022/10/19 08:50:18;;;;;;;47.90;26.58;;;;;;;15.25;93.28;97162.53;5051440;28;20055;-74
2022/10/19 08:52:49;;;;;;;59.50;30.25;;;;;;;15.27;92.96;97159.47;5051547;28;20414;-76
2022/10/19 08:55:22;;;;;;;51.25;27.90;;;;;;;15.35;92.30;97161.38;5051112;28;20048;-78
2022/10/19 08:57:54;;;;;;;45.97;26.33;;;;;;;15.44;91.92;97158.56;5051948;28;20510;-78
2022/10/19 09:00:29;;;;;;;48.28;28.77;;;;;;;15.35;90.99;97167.66;5051460;28;20451;-77
2022/10/19 09:03:09;;;;;;;44.25;26.05;;;;;;;15.47;90.75;97158.72;5051797;28;20041;-77
2022/10/19 09:05:43;;;;;;;47.38;26.08;;;;;;;15.27;90.47;97160.25;5051784;28;20041;-77
2022/10/19 09:08:12;;;;;;;41.83;25.30;;;;;;;15.34;90.81;97163.28;5051975;28;20048;-77
2022/10/19 09:10:40;;;;;;;42.03;24.58;;;;;;;15.40;90.66;97162.00;5052171;28;20056;-77
2022/10/19 09:13:16;;;;;;;40.70;24.38;;;;;;;15.24;90.60;97155.41;5052490;28;20068;-76
2022/10/19 09:15:45;;;;;;;39.45;24.77;;;;;;;15.30;90.50;97159.63;5052792;28;20069;-77
2022/10/19 09:18:18;;;;;;;35.95;22.80;;;;;;;15.54;90.41;97158.22;5052457;28;20504;-76
2022/10/19 09:20:48;;;;;;;38.30;22.23;;;;;;;15.60;90.31;97157.69;5052110;28;20049;-77
2022/10/19 09:23:21;;;;;;;35.55;22.08;;;;;;;15.53;89.13;97151.91;5052235;28;20053;-77
2022/10/19 09:25:50;;;;;;;32.17;20.45;;;;;;;15.61;88.18;97148.34;5052830;28;20152;-77
2022/10/19 09:28:39;;;;;;;39.30;21.13;;;;;;;15.70;88.36;97150.25;5052982;28;20102;-78
2022/10/19 09:31:10;;;;;;;38.17;22.42;;;;;;;15.64;88.61;97146.88;5053516;28;20047;-76
2022/10/19 09:33:41;;;;;;;33.25;21.05;;;;;;;15.82;88.10;97148.41;5053694;28;20043;-76
2022/10/19 09:36:09;;;;;;;36.00;21.15;;;;;;;15.82;88.01;97153.91;5052765;28;20045;-77
2022/10/19 09:38:35;;;;;;;28.50;18.88;;;;;;;15.95;87.70;97156.72;5052842;28;20041;-77
2022/10/19 09:41:15;;;;;;;26.48;18.15;;;;;;;16.07;87.03;97154.03;5052925;28;20045;-75
2022/10/19 09:43:49;;;;;;;27.40;18.50;;;;;;;15.97;86.02;97159.94;5053365;28;20419;-75
2022/10/19 09:46:27;;;;;;;24.58;16.30;;;;;;;16.15;85.95;97162.22;5052374;28;20052;-75
2022/10/19 09:48:55;;;;;;;22.50;15.35;;;;;;;16.22;85.08;97161.69;5053020;28;20059;-75
2022/10/19 09:51:21;;;;;;;28.45;16.30;;;;;;;16.28;84.56;97165.03;5051711;28;20059;-75
2022/10/19 09:53:52;;;;;;;25.52;15.93;;;;;;;16.31;84.98;97159.69;5052704;28;20056;-75
2022/10/19 09:56:19;;;;;;;19.77;13.93;;;;;;;16.44;84.29;97168.78;5052247;28;20044;-75
2022/10/19 09:58:50;;;;;;;22.38;15.80;;;;;;;16.57;85.06;97166.91;5051502;28;20049;-76
2022/10/19 10:01:31;;;;;;;18.88;13.63;;;;;;;16.62;83.08;97169.47;5052031;28;20053;-76
2022/10/19 10:04:07;;;;;;;19.98;12.10;;;;;;;16.75;82.58;97168.38;5055077;28;20049;-75
2022/10/19 10:06:35;;;;;;;16.15;11.55;;;;;;;16.75;81.75;97165.63;5054536;28;20124;-75
2022/10/19 10:09:02;;;;;;;17.33;12.63;;;;;;;16.78;81.43;97173.22;5054556;28;20048;-75
2022/10/19 10:11:32;;;;;;;17.58;11.25;;;;;;;16.77;81.58;97165.31;5059308;28;20051;-75
2022/10/19 10:14:06;;;;;;;15.00;11.25;;;;;;;16.79;81.80;97166.56;5061027;28;20140;-75
2022/10/19 10:16:35;;;;;;;18.20;13.20;;;;;;;16.79;81.83;97163.03;5061307;28;20049;-77
2022/10/19 10:19:07;;;;;;;19.20;13.05;;;;;;;16.71;81.71;97161.97;5060126;28;20072;-75
2022/10/19 10:21:46;;;;;;;14.95;10.98;;;;;;;16.80;81.57;97159.94;5058415;28;20135;-74
2022/10/19 10:24:18;;;;;;;17.20;11.10;;;;;;;16.64;81.08;97161.66;5056850;28;20068;-75
2022/10/19 10:26:47;;;;;;;13.97;9.70;;;;;;;16.71;80.72;97167.47;5039318;28;20049;-75
2022/10/19 10:29:19;;;;;;;20.80;11.07;;;;;;;16.72;80.71;97158.09;5055408;28;20343;-76
2022/10/19 10:31:47;;;;;;;18.50;12.05;;;;;;;16.69;80.59;97165.00;5055299;28;20049;-76
2022/10/19 10:34:21;;;;;;;15.52;10.95;;;;;;;16.81;82.04;97153.31;5055261;28;20111;-75
2022/10/19 10:36:51;;;;;;;19.10;13.00;;;;;;;16.89;81.70;97152.41;5055570;28;20508;-75
2022/10/19 10:39:19;;;;;;;17.52;11.70;;;;;;;17.08;81.41;97148.34;5055972;28;20049;-74
2022/10/19 10:41:47;;;;;;;16.88;11.57;;;;;;;17.35;81.28;97139.41;5056707;28;20041;-76
2022/10/19 10:44:19;;;;;;;16.63;12.10;;;;;;;17.66;80.63;97140.81;5055573;28;20475;-76
2022/10/19 10:46:52;;;;;;;15.75;11.07;;;;;;;17.81;78.28;97142.91;5055833;28;20048;-75
2022/10/19 10:49:26;;;;;;;17.42;12.60;;;;;;;17.84;76.46;97138.63;5054271;28;20049;-75
2022/10/19 10:51:57;;;;;;;19.00;12.38;;;;;;;17.92;77.96;97135.78;5054802;28;20084;-76
2022/10/19 10:54:25;;;;;;;18.20;11.68;;;;;;;17.99;76.71;97133.22;5055838;28;20045;-73
2022/10/19 10:57:05;;;;;;;17.25;12.13;;;;;;;17.86;75.93;97133.59;5055482;28;20535;-76
2022/10/19 10:59:36;;;;;;;15.13;11.02;;;;;;;17.88;76.82;97137.59;5056293;28;20043;-75
2022/10/19 11:02:12;;;;;;;13.32;10.57;;;;;;;17.82;75.66;97136.25;5055709;28;20045;-76
2022/10/19 11:04:45;;;;;;;14.43;10.65;;;;;;;17.62;75.07;97123.38;5056096;28;20049;-75
2022/10/19 11:07:18;;;;;;;14.38;10.23;;;;;;;17.61;75.67;97122.56;5055934;28;20048;-75
2022/10/19 11:09:52;;;;;;;13.95;10.10;;;;;;;17.67;75.64;97125.88;5037913;28;20044;-74
2022/10/19 11:12:30;;;;;;;12.93;9.85;;;;;;;17.62;76.31;97123.38;5054484;28;20045;-74
2022/10/19 11:15:04;;;;;;;13.30;10.27;;;;;;;17.56;76.11;97124.75;5054478;28;20415;-77
2022/10/19 11:17:33;;;;;;;14.48;10.73;;;;;;;17.37;76.42;97117.84;5054830;28;20051;-74
2022/10/19 11:20:02;;;;;;;16.80;11.57;;;;;;;17.39;75.07;97110.06;5054365;28;20523;-74
2022/10/19 11:22:35;;;;;;;13.40;9.27;;;;;;;17.38;75.82;97113.97;5053866;28;20045;-74
2022/10/19 11:25:23;;;;;;;16.70;11.70;;;;;;;17.16;76.25;97112.44;5054678;28;20060;-75
2022/10/19 11:28:01;;;;;;;16.30;12.00;;;;;;;17.06;77.82;97112.09;5055508;28;20109;-74
2022/10/19 11:30:32;;;;;;;14.52;11.30;;;;;;;17.12;78.93;97108.78;5054187;28;20553;-74